createdAt,value
2019-02-25T00:01:44.260Z,31.90
2019-02-25T00:04:12.227Z,33.70
2019-02-25T00:06:40.745Z,32.20
2019-02-25T00:09:09.369Z,34.30
2019-02-25T00:11:37.675Z,35.70
2019-02-25T00:14:05.659Z,35.00
2019-02-25T00:16:34.104Z,35.60
2019-02-25T00:19:02.902Z,35.70
2019-02-25T00:21:30.828Z,35.20
2019-02-25T00:23:59.054Z,36.10
2019-02-25T00:26:26.913Z,40.70
2019-02-25T00:28:54.878Z,38.30
2019-02-25T00:31:22.847Z,37.90
2019-02-25T00:33:50.769Z,37.70
2019-02-25T00:36:18.625Z,39.50
2019-02-25T00:38:46.545Z,36.10
2019-02-25T00:41:14.465Z,36.30
2019-02-25T00:43:42.496Z,35.90
2019-02-25T00:46:10.419Z,35.90
2019-02-25T00:48:38.789Z,35.90
2019-02-25T00:51:06.719Z,36.00
2019-02-25T00:53:34.765Z,37.00
2019-02-25T00:56:02.728Z,37.60
2019-02-25T00:58:30.670Z,36.70
2019-02-25T01:00:58.744Z,36.40
2019-02-25T01:03:26.741Z,34.30
2019-02-25T01:05:54.627Z,35.10
2019-02-25T01:08:23.230Z,34.20
2019-02-25T01:10:51.176Z,34.00
2019-02-25T01:13:20.319Z,35.90
2019-02-25T01:15:50.024Z,35.90
2019-02-25T01:18:18.044Z,36.40
2019-02-25T01:20:46.030Z,35.40
2019-02-25T01:23:13.988Z,37.50
2019-02-25T01:25:42.069Z,36.80
2019-02-25T01:28:11.391Z,37.90
2019-02-25T01:30:39.314Z,37.90
2019-02-25T01:33:07.823Z,35.60
2019-02-25T01:35:35.889Z,35.30
2019-02-25T01:38:04.147Z,37.10
2019-02-25T01:40:32.205Z,34.80
2019-02-25T01:43:00.202Z,35.40
2019-02-25T01:45:28.305Z,34.60
2019-02-25T01:47:56.699Z,35.70
2019-02-25T01:50:24.796Z,34.80
2019-02-25T01:52:52.754Z,35.70
2019-02-25T01:55:20.694Z,35.50
2019-02-25T01:57:48.647Z,35.30
2019-02-25T02:00:16.804Z,35.10
2019-02-25T02:02:44.826Z,32.50
2019-02-25T02:05:13.469Z,33.90
2019-02-25T02:07:41.610Z,35.40
2019-02-25T02:10:11.486Z,36.80
2019-02-25T02:12:39.538Z,37.10
2019-02-25T02:15:11.676Z,35.00
2019-02-25T02:17:39.724Z,33.20
2019-02-25T02:20:09.123Z,34.80
2019-02-25T02:22:37.203Z,36.40
2019-02-25T02:25:05.463Z,37.80
2019-02-25T02:27:33.461Z,36.40
2019-02-25T02:30:02.048Z,37.20
2019-02-25T02:32:30.027Z,38.70
2019-02-25T02:34:57.930Z,39.90
2019-02-25T02:37:26.323Z,40.40
2019-02-25T02:39:54.264Z,43.60
2019-02-25T02:42:22.509Z,41.20
2019-02-25T02:44:57.391Z,42.60
2019-02-25T02:48:23.556Z,43.10
2019-02-25T02:50:51.658Z,42.50
2019-02-25T02:53:19.644Z,45.90
2019-02-25T02:55:47.828Z,42.80
2019-02-25T02:58:15.873Z,44.70
2019-02-25T03:00:43.805Z,45.00
2019-02-25T03:03:11.716Z,43.10
2019-02-25T03:05:39.745Z,40.90
2019-02-25T03:08:07.703Z,43.80
2019-02-25T03:10:35.814Z,45.90
2019-02-25T03:13:03.717Z,46.40
2019-02-25T03:15:31.683Z,47.30
2019-02-25T03:17:59.648Z,47.40
2019-02-25T03:20:27.768Z,44.40
2019-02-25T03:22:55.615Z,46.10
2019-02-25T03:25:23.583Z,45.60
2019-02-25T03:27:51.844Z,46.10
2019-02-25T03:30:20.455Z,47.00
2019-02-25T03:32:48.593Z,47.10
2019-02-25T03:35:16.631Z,46.70
2019-02-25T03:37:44.555Z,48.50
2019-02-25T03:40:15.416Z,45.00
2019-02-25T03:42:43.488Z,47.90
2019-02-25T03:45:13.832Z,48.30
2019-02-25T03:47:41.744Z,48.00
2019-02-25T03:50:10.039Z,47.90
2019-02-25T03:52:38.174Z,46.30
2019-02-25T03:55:08.931Z,48.10
2019-02-25T03:57:39.907Z,47.90
2019-02-25T04:00:14.908Z,46.10
2019-02-25T04:02:42.925Z,50.90
2019-02-25T04:05:10.838Z,46.00
2019-02-25T04:07:38.752Z,46.80
2019-02-25T04:10:08.517Z,43.20
2019-02-25T04:12:38.800Z,43.80
2019-02-25T04:15:10.532Z,41.10
2019-02-25T04:17:38.490Z,42.40
2019-02-25T04:20:09.728Z,37.90
2019-02-25T04:22:38.082Z,39.30
2019-02-25T04:25:06.106Z,39.10
2019-02-25T04:27:34.060Z,41.20
2019-02-25T04:30:02.630Z,40.60
2019-02-25T04:32:34.502Z,41.10
2019-02-25T04:35:02.675Z,42.40
2019-02-25T04:37:30.571Z,40.90
2019-02-25T04:39:58.518Z,40.00
2019-02-25T04:42:26.912Z,39.80
2019-02-25T04:44:55.001Z,40.80
2019-02-25T04:47:22.983Z,40.90
2019-02-25T04:49:51.108Z,40.90
2019-02-25T04:52:19.405Z,39.80
2019-02-25T04:54:47.697Z,40.10
2019-02-25T04:57:15.542Z,41.10
2019-02-25T04:59:43.486Z,41.60
2019-02-25T05:02:11.560Z,41.80
2019-02-25T05:04:39.656Z,41.90
2019-02-25T05:07:09.679Z,43.10
2019-02-25T05:09:37.818Z,42.80
2019-02-25T05:12:06.157Z,41.00
2019-02-25T05:14:34.063Z,41.00
2019-02-25T05:17:02.096Z,46.30
2019-02-25T05:19:30.024Z,44.40
2019-02-25T05:21:58.107Z,46.00
2019-02-25T05:24:26.201Z,47.40
2019-02-25T05:26:54.113Z,46.10
2019-02-25T05:29:21.967Z,49.50
2019-02-25T05:31:49.969Z,46.40
2019-02-25T05:34:17.922Z,46.40
2019-02-25T05:36:46.005Z,49.70
2019-02-25T05:39:14.196Z,49.90
2019-02-25T05:41:42.312Z,48.40
2019-02-25T05:44:10.834Z,48.00
2019-02-25T05:46:38.958Z,49.00
2019-02-25T05:49:07.131Z,50.10
2019-02-25T05:51:35.283Z,49.90
2019-02-25T05:54:03.363Z,53.90
2019-02-25T05:56:31.515Z,50.40
2019-02-25T05:58:59.548Z,51.00
2019-02-25T06:01:27.496Z,49.70
2019-02-25T06:03:57.783Z,47.60
2019-02-25T06:06:25.833Z,51.50
2019-02-25T06:08:54.007Z,50.20
2019-02-25T06:11:22.329Z,51.70
2019-02-25T06:13:50.339Z,47.40
2019-02-25T06:16:18.861Z,47.70
2019-02-25T06:18:46.954Z,49.00
2019-02-25T06:21:15.196Z,50.50
2019-02-25T06:23:43.234Z,50.30
2019-02-25T06:26:11.253Z,49.70
2019-02-25T06:28:39.658Z,50.10
2019-02-25T06:31:07.809Z,50.40
2019-02-25T06:33:35.746Z,51.30
2019-02-25T06:36:03.944Z,49.20
2019-02-25T06:38:32.328Z,51.40
2019-02-25T06:41:00.738Z,52.30
2019-02-25T06:43:28.803Z,52.20
2019-02-25T06:45:56.889Z,50.90
2019-02-25T06:48:25.339Z,49.80
2019-02-25T06:50:53.386Z,49.60
2019-02-25T06:53:22.060Z,51.00
2019-02-25T06:55:49.991Z,52.40
2019-02-25T06:58:18.155Z,52.70
2019-02-25T07:00:46.594Z,54.40
2019-02-25T07:03:14.754Z,52.30
2019-02-25T07:06:09.644Z,53.60
2019-02-25T07:08:56.075Z,53.60
2019-02-25T07:11:52.774Z,54.20
2019-02-25T07:14:43.095Z,52.30
2019-02-25T07:17:29.731Z,51.90
2019-02-25T07:20:07.162Z,54.50
2019-02-25T07:22:42.345Z,55.30
2019-02-25T07:25:32.789Z,55.00
2019-02-25T07:28:36.699Z,52.80
2019-02-25T07:31:18.325Z,53.70
2019-02-25T07:34:14.626Z,53.70
2019-02-25T07:36:57.913Z,51.90
2019-02-25T07:40:03.827Z,50.40
2019-02-25T07:42:52.337Z,50.00
2019-02-25T07:45:27.349Z,47.60
2019-02-25T07:48:14.932Z,44.50
2019-02-25T07:51:09.638Z,45.80
2019-02-25T07:53:57.207Z,45.20
2019-02-25T07:56:51.453Z,39.10
2019-02-25T07:59:28.132Z,39.60
2019-02-25T08:02:18.365Z,38.50
2019-02-25T08:04:53.321Z,38.50
2019-02-25T08:07:53.462Z,37.70
2019-02-25T08:10:30.533Z,35.90
2019-02-25T08:13:21.585Z,35.90
2019-02-25T08:16:15.380Z,33.70
2019-02-25T08:19:03.311Z,29.00
2019-02-25T08:21:56.660Z,28.50
2019-02-25T08:24:38.880Z,29.20
2019-02-25T08:27:25.603Z,28.10
2019-02-25T08:30:25.179Z,29.00
2019-02-25T08:33:10.536Z,30.00
2019-02-25T08:36:51.975Z,28.40
2019-02-25T08:39:51.773Z,30.00
2019-02-25T08:42:33.191Z,28.60
2019-02-25T08:45:16.409Z,27.20
2019-02-25T08:48:07.320Z,28.30
2019-02-25T08:50:35.336Z,27.90
2019-02-25T08:53:03.968Z,27.90
2019-02-25T08:55:31.892Z,28.00
2019-02-25T08:57:59.774Z,26.90
2019-02-25T09:00:27.805Z,26.30
2019-02-25T09:02:55.815Z,26.90
2019-02-25T09:05:23.732Z,26.80
2019-02-25T09:07:52.235Z,26.50
2019-02-25T09:10:20.484Z,26.90
2019-02-25T09:12:49.728Z,26.20
2019-02-25T09:15:18.063Z,26.80
2019-02-25T09:17:44.974Z,27.30
2019-02-25T09:20:15.256Z,25.60
2019-02-25T09:22:43.437Z,25.40
2019-02-25T09:25:11.877Z,24.50
2019-02-25T09:27:40.336Z,24.70
2019-02-25T09:30:12.819Z,23.90
2019-02-25T09:32:41.108Z,24.00
2019-02-25T09:35:09.339Z,23.20
2019-02-25T09:37:37.456Z,22.60
2019-02-25T09:40:08.707Z,21.10
2019-02-25T09:42:36.693Z,19.80
2019-02-25T09:45:06.438Z,20.30
2019-02-25T09:47:34.536Z,18.60
2019-02-25T09:50:03.129Z,19.30
2019-02-25T09:52:31.080Z,18.00
2019-02-25T09:54:59.405Z,17.60
2019-02-25T09:57:29.324Z,17.20
2019-02-25T09:59:58.004Z,17.10
2019-02-25T10:02:26.080Z,16.90
2019-02-25T10:04:53.953Z,16.60
2019-02-25T10:07:22.312Z,16.60
2019-02-25T10:09:50.560Z,17.10
2019-02-25T10:12:18.612Z,15.90
2019-02-25T10:14:46.934Z,15.70
2019-02-25T10:17:23.504Z,15.70
2019-02-25T10:19:44.854Z,16.00
2019-02-25T10:22:12.888Z,16.60
2019-02-25T10:24:40.775Z,15.20
2019-02-25T10:27:08.893Z,16.10
2019-02-25T10:29:36.927Z,15.70
2019-02-25T10:32:06.508Z,15.90
2019-02-25T10:34:37.264Z,16.00
2019-02-25T10:37:05.388Z,16.50
2019-02-25T10:39:33.606Z,16.20
2019-02-25T10:42:01.887Z,16.40
2019-02-25T10:44:31.740Z,15.80
2019-02-25T10:46:59.916Z,16.20
2019-02-25T10:49:29.415Z,16.30
2019-02-25T10:51:58.452Z,16.00
2019-02-25T10:54:26.469Z,16.30
2019-02-25T10:56:59.786Z,16.00
2019-02-25T10:59:29.760Z,15.50
2019-02-25T11:01:58.079Z,16.50
2019-02-25T11:04:26.352Z,16.40
2019-02-25T11:06:55.773Z,16.60
2019-02-25T11:09:29.919Z,16.00
2019-02-25T11:11:59.968Z,15.90
2019-02-25T11:14:28.871Z,15.00
2019-02-25T11:16:56.943Z,14.90
2019-02-25T11:19:27.008Z,15.30
2019-02-25T11:21:54.958Z,15.80
2019-02-25T11:24:25.245Z,16.00
2019-02-25T11:26:53.111Z,16.10
2019-02-25T11:29:22.611Z,16.40
2019-02-25T11:31:51.929Z,16.50
2019-02-25T11:34:21.329Z,15.80
2019-02-25T11:36:50.951Z,16.10
2019-02-25T11:39:19.892Z,16.60
2019-02-25T11:41:49.669Z,16.30
2019-02-25T11:44:19.027Z,15.90
2019-02-25T11:46:48.242Z,15.50
2019-02-25T11:49:16.698Z,16.40
2019-02-25T11:51:45.316Z,16.50
2019-02-25T11:54:13.285Z,16.10
2019-02-25T11:56:41.731Z,16.20
2019-02-25T11:59:10.178Z,16.70
2019-02-25T12:01:38.169Z,17.30
2019-02-25T12:04:06.484Z,17.30
2019-02-25T12:06:34.736Z,17.20
2019-02-25T12:09:03.918Z,17.00
2019-02-25T12:11:34.997Z,17.10
2019-02-25T12:14:04.532Z,17.50
2019-02-25T12:16:32.582Z,17.60
2019-02-25T12:19:00.889Z,18.10
2019-02-25T12:21:31.663Z,18.20
2019-02-25T12:24:02.509Z,18.10
2019-02-25T12:26:30.544Z,18.40
2019-02-25T12:28:58.613Z,18.10
2019-02-25T12:31:26.573Z,17.80
2019-02-25T12:33:54.760Z,18.40
2019-02-25T12:36:22.727Z,17.70
2019-02-25T12:38:51.937Z,18.20
2019-02-25T12:41:21.763Z,18.70
2019-02-25T12:43:50.837Z,18.00
2019-02-25T12:46:18.731Z,18.00
2019-02-25T12:48:46.822Z,18.10
2019-02-25T12:51:15.401Z,18.00
2019-02-25T12:53:43.503Z,18.10
2019-02-25T12:56:11.616Z,18.10
2019-02-25T12:58:39.618Z,18.00
2019-02-25T13:01:07.781Z,17.60
2019-02-25T13:03:36.126Z,17.90
2019-02-25T13:06:04.485Z,18.50
2019-02-25T13:08:32.549Z,17.70
2019-02-25T13:11:05.081Z,18.30
2019-02-25T13:13:33.063Z,18.20
2019-02-25T13:16:01.585Z,18.50
2019-02-25T13:18:29.620Z,18.30
2019-02-25T13:20:57.716Z,18.40
2019-02-25T13:23:31.567Z,18.10
2019-02-25T13:26:07.259Z,18.40
2019-02-25T13:28:31.051Z,18.10
2019-02-25T13:31:01.043Z,18.10
2019-02-25T13:33:29.623Z,18.10
2019-02-25T13:35:57.944Z,18.60
2019-02-25T13:38:26.025Z,18.50
2019-02-25T13:40:54.475Z,18.80
2019-02-25T13:43:22.601Z,18.50
2019-02-25T13:45:51.367Z,18.90
2019-02-25T13:48:19.435Z,19.10
2019-02-25T13:50:47.831Z,19.30
2019-02-25T13:53:16.114Z,18.80
2019-02-25T13:55:44.654Z,19.30
2019-02-25T13:58:12.633Z,19.20
2019-02-25T14:00:40.843Z,19.20
2019-02-25T14:03:09.235Z,19.30
2019-02-25T14:05:37.885Z,19.40
2019-02-25T14:08:05.879Z,20.30
2019-02-25T14:10:34.410Z,19.90
2019-02-25T14:13:02.689Z,20.30
2019-02-25T14:15:30.981Z,20.20
2019-02-25T14:17:59.058Z,19.90
2019-02-25T14:20:27.187Z,20.20
2019-02-25T14:22:55.182Z,20.20
2019-02-25T14:25:24.311Z,20.00
2019-02-25T14:27:53.012Z,20.40
2019-02-25T14:30:22.557Z,20.20
2019-02-25T14:32:53.435Z,20.30
2019-02-25T14:35:28.219Z,20.50
2019-02-25T14:37:57.198Z,20.50
2019-02-25T14:40:26.879Z,20.50
2019-02-25T14:42:56.924Z,20.10
2019-02-25T14:45:26.509Z,20.50
2019-02-25T14:47:59.453Z,20.30
2019-02-25T14:50:25.905Z,20.40
2019-02-25T14:52:53.853Z,20.40
2019-02-25T14:55:21.936Z,20.60
2019-02-25T14:57:50.341Z,20.80
2019-02-25T15:00:24.301Z,20.90
2019-02-25T15:02:52.834Z,21.00
2019-02-25T15:05:23.286Z,20.90
2019-02-25T15:07:53.241Z,21.30
2019-02-25T15:10:21.308Z,21.40
2019-02-25T15:12:49.254Z,21.30
2019-02-25T15:15:17.713Z,21.00
2019-02-25T15:17:46.496Z,21.00
2019-02-25T15:20:18.291Z,20.80
2019-02-25T15:22:46.734Z,20.90
2019-02-25T15:25:15.083Z,20.80
2019-02-25T15:27:43.229Z,21.00
2019-02-25T15:30:16.674Z,20.80
2019-02-25T15:32:55.144Z,21.00
2019-02-25T15:35:19.040Z,20.90
2019-02-25T15:37:48.623Z,20.80
2019-02-25T15:40:20.253Z,20.80
2019-02-25T15:43:12.667Z,20.80
2019-02-25T15:45:42.481Z,20.70
2019-02-25T15:48:20.266Z,20.70
2019-02-25T15:50:52.978Z,20.70
2019-02-25T15:53:22.638Z,20.80
2019-02-25T15:55:50.905Z,21.00
2019-02-25T15:58:19.514Z,21.00
2019-02-25T16:00:48.064Z,21.00
2019-02-25T16:03:20.220Z,20.70
2019-02-25T16:05:46.930Z,20.70
2019-02-25T16:08:19.023Z,20.50
2019-02-25T16:10:51.296Z,20.50
2019-02-25T16:13:20.030Z,20.40
2019-02-25T16:15:50.686Z,20.40
2019-02-25T16:18:18.909Z,20.40
2019-02-25T16:20:46.999Z,20.40
2019-02-25T16:23:14.953Z,20.40
2019-02-25T16:25:43.387Z,20.30
2019-02-25T16:28:14.430Z,20.50
2019-02-25T16:30:42.426Z,20.00
2019-02-25T16:33:13.662Z,20.00
2019-02-25T16:35:43.114Z,20.70
2019-02-25T16:38:11.588Z,20.50
2019-02-25T16:40:42.057Z,20.50
2019-02-25T16:43:12.709Z,20.60
2019-02-25T16:45:46.444Z,20.60
2019-02-25T16:48:12.949Z,20.50
2019-02-25T16:50:42.157Z,20.60
2019-02-25T16:53:14.929Z,20.60
2019-02-25T16:55:42.758Z,20.40
2019-02-25T16:58:13.409Z,20.50
2019-02-25T17:00:42.000Z,20.50
2019-02-25T17:03:11.229Z,20.60
2019-02-25T17:05:42.892Z,20.80
2019-02-25T17:08:14.334Z,21.20
2019-02-25T17:10:42.343Z,22.10
2019-02-25T17:13:12.507Z,23.00
2019-02-25T17:15:41.893Z,24.40
2019-02-25T17:18:15.210Z,26.10
2019-02-25T17:20:42.192Z,27.70
2019-02-25T17:23:10.423Z,28.80
2019-02-25T17:25:40.775Z,29.30
2019-02-25T17:28:14.337Z,29.90
2019-02-25T17:30:41.197Z,29.70
2019-02-25T17:33:12.453Z,30.70
2019-02-25T17:35:42.982Z,31.50
2019-02-25T17:38:11.574Z,31.30
2019-02-25T17:40:39.889Z,31.60
2019-02-25T17:43:09.033Z,31.60
2019-02-25T17:45:39.009Z,33.30
2019-02-25T17:48:10.618Z,35.80
2019-02-25T17:50:41.528Z,35.90
2019-02-25T17:53:09.986Z,36.00
2019-02-25T17:55:39.046Z,37.90
2019-02-25T17:58:08.049Z,39.70
2019-02-25T18:00:41.726Z,41.50
2019-02-25T18:03:08.943Z,44.00
2019-02-25T18:05:43.123Z,47.20
2019-02-25T18:08:13.347Z,48.60
2019-02-25T18:10:43.164Z,50.40
2019-02-25T18:13:12.215Z,53.70
2019-02-25T18:15:56.640Z,55.90
2019-02-25T18:18:24.814Z,57.70
2019-02-25T18:20:53.653Z,60.20
2019-02-25T18:23:21.841Z,59.90
2019-02-25T18:25:50.055Z,60.90
2019-02-25T18:28:19.677Z,61.50
2019-02-25T18:30:48.190Z,61.20
2019-02-25T18:33:17.402Z,60.90
2019-02-25T18:35:47.404Z,62.70
2019-02-25T18:38:16.004Z,64.10
2019-02-25T18:40:46.234Z,64.90
2019-02-25T18:43:14.486Z,66.30
2019-02-25T18:46:07.501Z,67.40
2019-02-25T18:48:36.218Z,67.50
2019-02-25T18:51:05.343Z,67.60
2019-02-25T18:53:36.391Z,66.30
2019-02-25T18:56:05.017Z,66.70
2019-02-25T18:58:35.269Z,67.70
2019-02-25T19:01:04.745Z,67.40
2019-02-25T19:03:35.484Z,68.20
2019-02-25T19:06:04.610Z,68.30
2019-02-25T19:08:33.502Z,68.40
2019-02-25T19:11:02.313Z,68.90
2019-02-25T19:13:32.029Z,69.30
2019-02-25T19:16:01.528Z,68.10
2019-02-25T19:18:32.253Z,67.60
2019-02-25T19:21:01.900Z,67.60
2019-02-25T19:23:31.279Z,69.00
2019-02-25T19:26:00.957Z,68.40
2019-02-25T19:28:30.327Z,69.20
2019-02-25T19:30:58.650Z,68.70
2019-02-25T19:33:27.251Z,68.70
2019-02-25T19:35:58.134Z,69.50
2019-02-25T19:38:26.367Z,70.10
2019-02-25T19:40:55.953Z,70.20
2019-02-25T19:43:25.459Z,70.50
2019-02-25T19:45:54.065Z,71.80
2019-02-25T19:48:28.270Z,73.40
2019-02-25T19:50:54.062Z,74.60
2019-02-25T19:53:22.528Z,73.70
2019-02-25T19:55:51.831Z,75.30
2019-02-25T19:58:20.721Z,74.90
2019-02-25T20:00:50.962Z,74.00
2019-02-25T20:03:18.892Z,76.10
2019-02-25T20:05:46.999Z,75.90
2019-02-25T20:08:17.134Z,75.50
2019-02-25T20:10:45.744Z,76.70
2019-02-25T20:13:13.901Z,77.40
2019-02-25T20:15:44.357Z,77.80
2019-02-25T20:18:13.926Z,77.40
2019-02-25T20:20:43.538Z,77.40
2019-02-25T20:23:11.920Z,80.60
2019-02-25T20:25:44.818Z,79.60
2019-02-25T20:28:12.328Z,80.20
2019-02-25T20:30:40.580Z,81.00
2019-02-25T20:33:09.185Z,80.70
2019-02-25T20:35:51.277Z,82.90
2019-02-25T20:38:22.527Z,81.90
2019-02-25T20:40:50.838Z,88.50
2019-02-25T20:43:21.341Z,88.10
2019-02-25T20:45:54.057Z,87.90
2019-02-25T20:48:20.961Z,91.50
2019-02-25T20:50:48.904Z,90.10
2019-02-25T20:53:18.039Z,92.10
2019-02-25T20:55:48.103Z,92.00
2019-02-25T20:58:18.631Z,95.80
2019-02-25T21:00:48.668Z,95.70
2019-02-25T21:03:18.942Z,94.90
2019-02-25T21:05:47.270Z,95.50
2019-02-25T21:08:18.974Z,94.50
2019-02-25T21:10:47.274Z,93.20
2019-02-25T21:13:15.243Z,95.00
2019-02-25T21:15:45.287Z,94.50
2019-02-25T21:18:13.076Z,95.40
2019-02-25T21:20:42.830Z,94.20
2019-02-25T21:23:12.558Z,95.10
2019-02-25T21:25:41.022Z,95.10
2019-02-25T21:28:11.164Z,96.30
2019-02-25T21:30:41.133Z,95.70
2019-02-25T21:33:08.808Z,97.20
2019-02-25T21:35:38.073Z,96.40
2019-02-25T21:38:06.932Z,97.00
2019-02-25T21:40:35.462Z,97.40
2019-02-25T21:43:03.589Z,98.80
2019-02-25T21:45:32.493Z,98.20
2019-02-25T21:48:01.998Z,98.70
2019-02-25T21:50:33.530Z,98.00
2019-02-25T21:53:01.110Z,96.10
2019-02-25T21:55:30.998Z,94.90
2019-02-25T21:58:02.233Z,93.60
2019-02-25T22:00:32.205Z,92.50
2019-02-25T22:02:59.864Z,91.40
2019-02-25T22:05:27.807Z,90.80
2019-02-25T22:07:57.782Z,91.50
2019-02-25T22:10:25.582Z,91.00
2019-02-25T22:12:53.669Z,92.30
2019-02-25T22:15:22.504Z,92.40
2019-02-25T22:17:53.284Z,93.30
2019-02-25T22:20:24.920Z,92.60
2019-02-25T22:22:56.690Z,93.20
2019-02-25T22:25:22.836Z,93.10
2019-02-25T22:27:51.446Z,94.20
2019-02-25T22:30:19.732Z,94.90
2019-02-25T22:32:47.636Z,95.30
2019-02-25T22:35:15.715Z,97.10
2019-02-25T22:37:46.824Z,97.80
2019-02-25T22:40:15.090Z,98.20
2019-02-25T22:42:43.284Z,97.90
2019-02-25T22:45:14.215Z,98.00
2019-02-25T22:47:43.236Z,99.20
2019-02-25T22:50:13.310Z,99.00
2019-02-25T22:52:41.187Z,99.90
2019-02-25T22:55:10.133Z,99.60
2019-02-25T22:57:40.838Z,99.90
2019-02-25T23:00:29.404Z,99.00
2019-02-25T23:02:57.723Z,99.90
2019-02-25T23:05:26.296Z,99.90
2019-02-25T23:07:54.812Z,99.90
2019-02-25T23:10:24.353Z,99.90
2019-02-25T23:12:53.035Z,99.90
2019-02-25T23:15:23.267Z,99.90
2019-02-25T23:17:51.066Z,99.90
2019-02-25T23:20:19.042Z,99.90
2019-02-25T23:22:46.963Z,99.90
2019-02-25T23:25:15.099Z,99.90
2019-02-25T23:27:43.087Z,99.90
2019-02-25T23:30:10.984Z,99.90
2019-02-25T23:32:39.551Z,99.90
2019-02-25T23:35:09.467Z,99.90
2019-02-25T23:37:37.469Z,99.90
2019-02-25T23:40:07.235Z,99.90
2019-02-25T23:42:37.111Z,99.90
2019-02-25T23:45:05.778Z,99.90
2019-02-25T23:47:35.595Z,99.90
2019-02-25T23:50:04.925Z,99.90
2019-02-25T23:52:35.850Z,99.90
2019-02-25T23:55:05.405Z,99.90
2019-02-25T23:57:35.185Z,99.90
